Terminal Aerodrome Forecast
Issued by NWS

Home | Current Version | Previous Version | Text Only | Print | Product List | Glossary On
Versions: 1 2 3 4 5 6 7 8 9 10 11 12 13 14
000
FTUS41 KBOX 152331
TAFBED
TAF
KBED 152331Z 1600/1624 00000KT P6SM VCSH OVC070
     FM160100 00000KT P6SM -SN OVC035
     FM160400 00000KT P6SM BKN060
     FM161500 27010G20KT P6SM FEW250
     FM162100 28010KT P6SM SCT150=

USA.gov is the U.S. government's official web portal to all federal, state and local government web resources and services.